Terminal Aerodrome Forecast
Issued by NWS Riverton, WY

Home | Current Version | Previous Version | Text Only | Print | Product List | Glossary On
Versions: 1 2 3 4 5 6 7 8 9 10 11 12
000
FTUS45 KRIW 290523
TAFRIW
TAF
KRIW 290523Z 2906/3006 16007KT P6SM FEW120
     FM291200 19007KT P6SM SCT100 BKN150
     FM292000 21012G18KT P6SM SCT090 BKN200
     FM300200 22008KT P6SM BKN080=

USA.gov is the U.S. government's official web portal to all federal, state and local government web resources and services.